sensor_id;sensor_type;location;lat;lon;timestamp;temperature;humidity
24164;DHT22;12319;49.204;8.116;2023-05-18T00:02:04;10.80;55.70
24164;DHT22;12319;49.204;8.116;2023-05-18T00:04:31;10.80;55.80
24164;DHT22;12319;49.204;8.116;2023-05-18T00:06:58;10.70;56.10
24164;DHT22;12319;49.204;8.116;2023-05-18T00:09:32;10.70;55.90
24164;DHT22;12319;49.204;8.116;2023-05-18T00:11:58;10.70;56.10
24164;DHT22;12319;49.204;8.116;2023-05-18T00:14:25;10.60;56.00
24164;DHT22;12319;49.204;8.116;2023-05-18T00:16:50;10.60;56.20
24164;DHT22;12319;49.204;8.116;2023-05-18T00:19:22;10.60;56.20
24164;DHT22;12319;49.204;8.116;2023-05-18T00:21:49;10.60;56.50
24164;DHT22;12319;49.204;8.116;2023-05-18T00:24:16;10.50;56.30
24164;DHT22;12319;49.204;8.116;2023-05-18T00:26:43;10.50;56.70
24164;DHT22;12319;49.204;8.116;2023-05-18T00:29:09;10.50;56.70
24164;DHT22;12319;49.204;8.116;2023-05-18T00:31:36;10.50;56.70
24164;DHT22;12319;49.204;8.116;2023-05-18T00:34:11;10.40;56.60
24164;DHT22;12319;49.204;8.116;2023-05-18T00:36:37;10.40;56.80
24164;DHT22;12319;49.204;8.116;2023-05-18T00:39:04;10.40;57.00
24164;DHT22;12319;49.204;8.116;2023-05-18T00:41:30;10.30;57.10
24164;DHT22;12319;49.204;8.116;2023-05-18T00:43:57;10.30;57.10
24164;DHT22;12319;49.204;8.116;2023-05-18T00:46:24;10.20;57.10
24164;DHT22;12319;49.204;8.116;2023-05-18T00:48:50;10.20;56.90
24164;DHT22;12319;49.204;8.116;2023-05-18T00:51:20;10.20;57.00
24164;DHT22;12319;49.204;8.116;2023-05-18T00:53:51;10.20;57.30
24164;DHT22;12319;49.204;8.116;2023-05-18T00:56:18;10.20;57.20
24164;DHT22;12319;49.204;8.116;2023-05-18T00:58:44;10.20;57.20
24164;DHT22;12319;49.204;8.116;2023-05-18T01:01:10;10.20;57.30
24164;DHT22;12319;49.204;8.116;2023-05-18T01:03:36;10.20;57.10
24164;DHT22;12319;49.204;8.116;2023-05-18T01:06:05;10.10;57.10
24164;DHT22;12319;49.204;8.116;2023-05-18T01:08:31;10.10;57.40
24164;DHT22;12319;49.204;8.116;2023-05-18T01:11:06;10.10;57.70
24164;DHT22;12319;49.204;8.116;2023-05-18T01:13:50;10.10;57.80
24164;DHT22;12319;49.204;8.116;2023-05-18T01:16:24;10.00;57.70
24164;DHT22;12319;49.204;8.116;2023-05-18T01:19:02;10.00;57.80
24164;DHT22;12319;49.204;8.116;2023-05-18T01:21:56;10.00;58.00
24164;DHT22;12319;49.204;8.116;2023-05-18T01:24:42;9.90;59.10
24164;DHT22;12319;49.204;8.116;2023-05-18T01:27:09;9.90;59.00
24164;DHT22;12319;49.204;8.116;2023-05-18T01:29:38;9.90;59.10
24164;DHT22;12319;49.204;8.116;2023-05-18T01:32:08;9.90;59.00
24164;DHT22;12319;49.204;8.116;2023-05-18T01:34:33;9.90;59.10
24164;DHT22;12319;49.204;8.116;2023-05-18T01:36:59;9.80;59.10
24164;DHT22;12319;49.204;8.116;2023-05-18T01:39:25;9.80;59.10
24164;DHT22;12319;49.204;8.116;2023-05-18T01:41:57;9.80;59.40
24164;DHT22;12319;49.204;8.116;2023-05-18T01:44:38;9.80;59.40
24164;DHT22;12319;49.204;8.116;2023-05-18T01:47:11;9.80;59.40
24164;DHT22;12319;49.204;8.116;2023-05-18T01:52:35;9.70;59.40
24164;DHT22;12319;49.204;8.116;2023-05-18T01:55:03;9.70;59.30
24164;DHT22;12319;49.204;8.116;2023-05-18T01:57:30;9.70;59.40
24164;DHT22;12319;49.204;8.116;2023-05-18T01:59:58;9.70;59.70
24164;DHT22;12319;49.204;8.116;2023-05-18T02:02:25;9.70;59.60
24164;DHT22;12319;49.204;8.116;2023-05-18T02:04:51;9.60;59.70
24164;DHT22;12319;49.204;8.116;2023-05-18T02:07:17;9.60;59.90
24164;DHT22;12319;49.204;8.116;2023-05-18T02:09:42;9.60;59.90
24164;DHT22;12319;49.204;8.116;2023-05-18T02:12:11;9.50;60.00
24164;DHT22;12319;49.204;8.116;2023-05-18T02:14:36;9.50;59.90
24164;DHT22;12319;49.204;8.116;2023-05-18T02:17:02;9.50;60.10
24164;DHT22;12319;49.204;8.116;2023-05-18T02:19:28;9.50;60.30
24164;DHT22;12319;49.204;8.116;2023-05-18T02:21:56;9.50;60.30
24164;DHT22;12319;49.204;8.116;2023-05-18T02:24:22;9.50;60.60
24164;DHT22;12319;49.204;8.116;2023-05-18T02:26:49;9.40;60.50
24164;DHT22;12319;49.204;8.116;2023-05-18T02:29:15;9.50;60.60
24164;DHT22;12319;49.204;8.116;2023-05-18T02:31:41;9.40;60.60
24164;DHT22;12319;49.204;8.116;2023-05-18T02:34:06;9.40;60.70
24164;DHT22;12319;49.204;8.116;2023-05-18T02:36:33;9.40;60.90
24164;DHT22;12319;49.204;8.116;2023-05-18T02:39:04;9.40;61.40
24164;DHT22;12319;49.204;8.116;2023-05-18T02:41:31;9.40;61.40
24164;DHT22;12319;49.204;8.116;2023-05-18T02:44:00;9.30;61.10
24164;DHT22;12319;49.204;8.116;2023-05-18T02:46:27;9.30;61.30
24164;DHT22;12319;49.204;8.116;2023-05-18T02:48:52;9.30;61.30
24164;DHT22;12319;49.204;8.116;2023-05-18T02:51:18;9.30;61.30
24164;DHT22;12319;49.204;8.116;2023-05-18T02:53:44;9.30;61.70
24164;DHT22;12319;49.204;8.116;2023-05-18T02:56:09;9.30;61.60
24164;DHT22;12319;49.204;8.116;2023-05-18T02:58:36;9.20;61.90
24164;DHT22;12319;49.204;8.116;2023-05-18T03:01:03;9.20;61.80
24164;DHT22;12319;49.204;8.116;2023-05-18T03:03:32;9.20;62.00
24164;DHT22;12319;49.204;8.116;2023-05-18T03:05:59;9.20;62.60
24164;DHT22;12319;49.204;8.116;2023-05-18T03:08:25;9.20;62.50
24164;DHT22;12319;49.204;8.116;2023-05-18T03:10:51;9.20;62.60
24164;DHT22;12319;49.204;8.116;2023-05-18T03:13:17;9.20;62.60
24164;DHT22;12319;49.204;8.116;2023-05-18T03:15:42;9.20;62.50
24164;DHT22;12319;49.204;8.116;2023-05-18T03:18:10;9.20;62.60
24164;DHT22;12319;49.204;8.116;2023-05-18T03:20:36;9.20;62.50
24164;DHT22;12319;49.204;8.116;2023-05-18T03:23:02;9.20;62.50
24164;DHT22;12319;49.204;8.116;2023-05-18T03:25:28;9.20;62.90
24164;DHT22;12319;49.204;8.116;2023-05-18T03:27:53;9.10;63.20
24164;DHT22;12319;49.204;8.116;2023-05-18T03:30:19;9.10;63.10
24164;DHT22;12319;49.204;8.116;2023-05-18T03:32:48;9.10;62.90
24164;DHT22;12319;49.204;8.116;2023-05-18T03:35:14;9.00;63.00
24164;DHT22;12319;49.204;8.116;2023-05-18T03:37:40;9.10;63.30
24164;DHT22;12319;49.204;8.116;2023-05-18T03:40:14;9.10;63.50
24164;DHT22;12319;49.204;8.116;2023-05-18T03:42:40;9.10;63.50
24164;DHT22;12319;49.204;8.116;2023-05-18T03:45:07;9.10;63.50
24164;DHT22;12319;49.204;8.116;2023-05-18T03:47:33;9.10;63.50
24164;DHT22;12319;49.204;8.116;2023-05-18T03:49:58;9.10;63.60
24164;DHT22;12319;49.204;8.116;2023-05-18T03:52:24;9.20;63.90
24164;DHT22;12319;49.204;8.116;2023-05-18T03:54:50;9.10;63.70
24164;DHT22;12319;49.204;8.116;2023-05-18T03:57:16;9.10;63.50
24164;DHT22;12319;49.204;8.116;2023-05-18T03:59:43;9.10;63.70
24164;DHT22;12319;49.204;8.116;2023-05-18T04:02:10;9.20;63.70
24164;DHT22;12319;49.204;8.116;2023-05-18T04:04:36;9.20;63.80
24164;DHT22;12319;49.204;8.116;2023-05-18T04:07:02;9.20;63.90
24164;DHT22;12319;49.204;8.116;2023-05-18T04:09:30;9.20;63.80
24164;DHT22;12319;49.204;8.116;2023-05-18T04:11:56;9.30;63.90
24164;DHT22;12319;49.204;8.116;2023-05-18T04:14:21;9.30;63.90
24164;DHT22;12319;49.204;8.116;2023-05-18T04:16:49;9.30;63.90
24164;DHT22;12319;49.204;8.116;2023-05-18T04:19:16;9.40;64.10
24164;DHT22;12319;49.204;8.116;2023-05-18T04:21:43;9.40;64.00
24164;DHT22;12319;49.204;8.116;2023-05-18T04:24:12;9.50;64.00
24164;DHT22;12319;49.204;8.116;2023-05-18T04:26:39;9.50;64.00
24164;DHT22;12319;49.204;8.116;2023-05-18T04:29:04;9.60;64.10
24164;DHT22;12319;49.204;8.116;2023-05-18T04:31:32;9.70;64.30
24164;DHT22;12319;49.204;8.116;2023-05-18T04:33:59;9.80;64.10
24164;DHT22;12319;49.204;8.116;2023-05-18T04:36:25;9.80;64.10
24164;DHT22;12319;49.204;8.116;2023-05-18T04:38:58;9.90;64.00
24164;DHT22;12319;49.204;8.116;2023-05-18T04:41:24;9.90;63.90
24164;DHT22;12319;49.204;8.116;2023-05-18T04:43:51;10.00;62.90
24164;DHT22;12319;49.204;8.116;2023-05-18T04:46:18;10.10;62.80
24164;DHT22;12319;49.204;8.116;2023-05-18T04:48:43;10.10;62.60
24164;DHT22;12319;49.204;8.116;2023-05-18T04:51:09;10.20;62.80
24164;DHT22;12319;49.204;8.116;2023-05-18T04:53:35;10.30;62.80
24164;DHT22;12319;49.204;8.116;2023-05-18T04:56:03;10.40;62.70
24164;DHT22;12319;49.204;8.116;2023-05-18T04:58:29;10.40;62.70
24164;DHT22;12319;49.204;8.116;2023-05-18T05:00:55;10.50;62.60
24164;DHT22;12319;49.204;8.116;2023-05-18T05:03:21;10.60;62.30
24164;DHT22;12319;49.204;8.116;2023-05-18T05:05:47;10.70;62.40
24164;DHT22;12319;49.204;8.116;2023-05-18T05:08:12;10.70;62.10
24164;DHT22;12319;49.204;8.116;2023-05-18T05:10:38;10.70;61.90
24164;DHT22;12319;49.204;8.116;2023-05-18T05:13:03;10.80;62.10
24164;DHT22;12319;49.204;8.116;2023-05-18T05:15:29;10.80;62.00
24164;DHT22;12319;49.204;8.116;2023-05-18T05:17:55;10.80;62.00
24164;DHT22;12319;49.204;8.116;2023-05-18T05:20:21;10.80;61.80
24164;DHT22;12319;49.204;8.116;2023-05-18T05:22:47;10.90;61.80
24164;DHT22;12319;49.204;8.116;2023-05-18T05:25:12;10.90;61.70
24164;DHT22;12319;49.204;8.116;2023-05-18T05:27:38;11.00;61.70
24164;DHT22;12319;49.204;8.116;2023-05-18T05:30:04;11.00;61.80
24164;DHT22;12319;49.204;8.116;2023-05-18T05:32:30;11.10;61.60
24164;DHT22;12319;49.204;8.116;2023-05-18T05:34:55;11.20;61.60
24164;DHT22;12319;49.204;8.116;2023-05-18T05:37:21;11.30;61.70
24164;DHT22;12319;49.204;8.116;2023-05-18T05:39:46;11.40;61.60
24164;DHT22;12319;49.204;8.116;2023-05-18T05:42:12;11.50;61.50
24164;DHT22;12319;49.204;8.116;2023-05-18T05:44:38;11.60;61.20
24164;DHT22;12319;49.204;8.116;2023-05-18T05:47:05;11.70;61.10
24164;DHT22;12319;49.204;8.116;2023-05-18T05:49:31;11.90;61.00
24164;DHT22;12319;49.204;8.116;2023-05-18T05:51:57;12.00;60.80
24164;DHT22;12319;49.204;8.116;2023-05-18T05:54:22;12.10;61.00
24164;DHT22;12319;49.204;8.116;2023-05-18T05:56:48;12.30;60.70
24164;DHT22;12319;49.204;8.116;2023-05-18T05:59:14;12.60;60.50
24164;DHT22;12319;49.204;8.116;2023-05-18T06:01:39;12.90;60.60
24164;DHT22;12319;49.204;8.116;2023-05-18T06:04:05;13.90;61.00
24164;DHT22;12319;49.204;8.116;2023-05-18T06:06:36;15.60;60.20
24164;DHT22;12319;49.204;8.116;2023-05-18T06:09:01;17.70;58.10
24164;DHT22;12319;49.204;8.116;2023-05-18T06:11:29;19.70;55.60
24164;DHT22;12319;49.204;8.116;2023-05-18T06:13:54;21.40;54.00
24164;DHT22;12319;49.204;8.116;2023-05-18T06:16:20;22.90;50.60
24164;DHT22;12319;49.204;8.116;2023-05-18T06:18:45;24.10;50.20
24164;DHT22;12319;49.204;8.116;2023-05-18T06:21:12;25.10;46.60
24164;DHT22;12319;49.204;8.116;2023-05-18T06:23:37;26.20;45.70
24164;DHT22;12319;49.204;8.116;2023-05-18T06:26:03;27.00;45.90
24164;DHT22;12319;49.204;8.116;2023-05-18T06:28:29;27.70;41.80
24164;DHT22;12319;49.204;8.116;2023-05-18T06:30:55;28.50;40.70
24164;DHT22;12319;49.204;8.116;2023-05-18T06:33:20;29.10;41.80
24164;DHT22;12319;49.204;8.116;2023-05-18T06:35:48;29.70;40.60
24164;DHT22;12319;49.204;8.116;2023-05-18T06:38:13;30.10;41.10
24164;DHT22;12319;49.204;8.116;2023-05-18T06:40:39;30.50;41.10
24164;DHT22;12319;49.204;8.116;2023-05-18T06:43:04;30.90;39.90
24164;DHT22;12319;49.204;8.116;2023-05-18T06:45:30;31.20;39.60
24164;DHT22;12319;49.204;8.116;2023-05-18T06:47:55;31.40;38.30
24164;DHT22;12319;49.204;8.116;2023-05-18T06:50:21;31.90;37.20
24164;DHT22;12319;49.204;8.116;2023-05-18T06:52:47;32.20;37.70
24164;DHT22;12319;49.204;8.116;2023-05-18T06:55:12;32.60;37.50
24164;DHT22;12319;49.204;8.116;2023-05-18T06:57:39;32.90;37.20
24164;DHT22;12319;49.204;8.116;2023-05-18T07:00:07;33.20;37.00
24164;DHT22;12319;49.204;8.116;2023-05-18T07:02:34;33.40;36.70
24164;DHT22;12319;49.204;8.116;2023-05-18T07:05:00;33.70;36.30
24164;DHT22;12319;49.204;8.116;2023-05-18T07:07:29;33.90;35.40
24164;DHT22;12319;49.204;8.116;2023-05-18T07:09:55;34.10;34.10
24164;DHT22;12319;49.204;8.116;2023-05-18T07:12:21;34.20;34.30
24164;DHT22;12319;49.204;8.116;2023-05-18T07:14:47;34.30;34.80
24164;DHT22;12319;49.204;8.116;2023-05-18T07:17:13;34.40;34.00
24164;DHT22;12319;49.204;8.116;2023-05-18T07:19:38;34.70;34.40
24164;DHT22;12319;49.204;8.116;2023-05-18T07:22:04;35.10;34.10
24164;DHT22;12319;49.204;8.116;2023-05-18T07:24:29;35.30;33.50
24164;DHT22;12319;49.204;8.116;2023-05-18T07:26:55;35.50;34.10
24164;DHT22;12319;49.204;8.116;2023-05-18T07:29:21;35.70;32.60
24164;DHT22;12319;49.204;8.116;2023-05-18T07:31:46;35.90;33.30
24164;DHT22;12319;49.204;8.116;2023-05-18T07:34:12;36.00;32.00
24164;DHT22;12319;49.204;8.116;2023-05-18T07:36:37;36.00;31.50
24164;DHT22;12319;49.204;8.116;2023-05-18T07:39:03;36.00;31.40
24164;DHT22;12319;49.204;8.116;2023-05-18T07:41:28;35.90;31.60
24164;DHT22;12319;49.204;8.116;2023-05-18T07:43:56;35.90;31.80
24164;DHT22;12319;49.204;8.116;2023-05-18T07:46:21;36.00;31.70
24164;DHT22;12319;49.204;8.116;2023-05-18T07:48:47;36.00;30.60
24164;DHT22;12319;49.204;8.116;2023-05-18T07:51:12;35.80;30.80
24164;DHT22;12319;49.204;8.116;2023-05-18T07:53:38;35.70;30.80
24164;DHT22;12319;49.204;8.116;2023-05-18T07:56:05;35.60;30.70
24164;DHT22;12319;49.204;8.116;2023-05-18T07:58:36;35.60;30.90
24164;DHT22;12319;49.204;8.116;2023-05-18T08:01:01;35.60;30.90
24164;DHT22;12319;49.204;8.116;2023-05-18T08:03:27;35.70;30.90
24164;DHT22;12319;49.204;8.116;2023-05-18T08:05:53;35.80;31.20
24164;DHT22;12319;49.204;8.116;2023-05-18T08:08:18;35.90;30.60
24164;DHT22;12319;49.204;8.116;2023-05-18T08:10:44;36.00;30.50
24164;DHT22;12319;49.204;8.116;2023-05-18T08:13:10;36.00;30.40
24164;DHT22;12319;49.204;8.116;2023-05-18T08:15:35;36.00;29.70
24164;DHT22;12319;49.204;8.116;2023-05-18T08:18:03;36.00;29.30
24164;DHT22;12319;49.204;8.116;2023-05-18T08:20:28;35.80;29.80
24164;DHT22;12319;49.204;8.116;2023-05-18T08:22:57;35.50;29.50
24164;DHT22;12319;49.204;8.116;2023-05-18T08:25:24;35.20;28.80
24164;DHT22;12319;49.204;8.116;2023-05-18T08:27:49;34.90;29.30
24164;DHT22;12319;49.204;8.116;2023-05-18T08:30:15;34.50;29.00
24164;DHT22;12319;49.204;8.116;2023-05-18T08:32:40;34.10;29.30
24164;DHT22;12319;49.204;8.116;2023-05-18T08:35:07;33.80;29.60
24164;DHT22;12319;49.204;8.116;2023-05-18T08:37:33;32.80;29.50
24164;DHT22;12319;49.204;8.116;2023-05-18T08:40:02;31.50;29.40
24164;DHT22;12319;49.204;8.116;2023-05-18T08:42:42;30.10;30.20
24164;DHT22;12319;49.204;8.116;2023-05-18T08:45:14;28.60;31.10
24164;DHT22;12319;49.204;8.116;2023-05-18T08:47:43;27.40;32.20
24164;DHT22;12319;49.204;8.116;2023-05-18T08:50:09;26.40;33.10
24164;DHT22;12319;49.204;8.116;2023-05-18T08:52:44;25.40;33.80
24164;DHT22;12319;49.204;8.116;2023-05-18T08:55:11;24.80;34.90
24164;DHT22;12319;49.204;8.116;2023-05-18T08:57:41;24.20;35.50
24164;DHT22;12319;49.204;8.116;2023-05-18T09:00:09;23.70;36.00
24164;DHT22;12319;49.204;8.116;2023-05-18T09:02:37;23.10;36.30
24164;DHT22;12319;49.204;8.116;2023-05-18T09:05:05;22.70;37.00
24164;DHT22;12319;49.204;8.116;2023-05-18T09:07:31;22.40;37.10
24164;DHT22;12319;49.204;8.116;2023-05-18T09:09:56;22.20;37.60
24164;DHT22;12319;49.204;8.116;2023-05-18T09:12:23;22.00;38.30
24164;DHT22;12319;49.204;8.116;2023-05-18T09:14:50;21.90;38.50
24164;DHT22;12319;49.204;8.116;2023-05-18T09:17:17;21.80;38.80
24164;DHT22;12319;49.204;8.116;2023-05-18T09:19:43;21.70;38.80
24164;DHT22;12319;49.204;8.116;2023-05-18T09:22:08;21.60;39.20
24164;DHT22;12319;49.204;8.116;2023-05-18T09:24:34;21.40;39.50
24164;DHT22;12319;49.204;8.116;2023-05-18T09:27:02;21.30;39.40
24164;DHT22;12319;49.204;8.116;2023-05-18T09:29:28;21.20;39.20
24164;DHT22;12319;49.204;8.116;2023-05-18T09:31:54;21.20;39.00
24164;DHT22;12319;49.204;8.116;2023-05-18T09:34:20;21.10;39.20
24164;DHT22;12319;49.204;8.116;2023-05-18T09:36:50;21.10;39.20
24164;DHT22;12319;49.204;8.116;2023-05-18T09:39:17;21.00;39.10
24164;DHT22;12319;49.204;8.116;2023-05-18T09:41:43;21.00;39.10
24164;DHT22;12319;49.204;8.116;2023-05-18T09:44:09;21.00;39.40
24164;DHT22;12319;49.204;8.116;2023-05-18T09:46:37;21.00;39.30
24164;DHT22;12319;49.204;8.116;2023-05-18T09:49:04;21.00;39.50
24164;DHT22;12319;49.204;8.116;2023-05-18T09:51:30;21.00;39.50
24164;DHT22;12319;49.204;8.116;2023-05-18T09:53:58;21.00;39.60
24164;DHT22;12319;49.204;8.116;2023-05-18T09:56:25;21.10;39.70
24164;DHT22;12319;49.204;8.116;2023-05-18T09:58:51;21.10;39.80
24164;DHT22;12319;49.204;8.116;2023-05-18T10:01:17;21.10;39.60
24164;DHT22;12319;49.204;8.116;2023-05-18T10:03:43;21.20;40.30
24164;DHT22;12319;49.204;8.116;2023-05-18T10:06:13;21.20;39.50
24164;DHT22;12319;49.204;8.116;2023-05-18T10:08:39;21.20;39.40
24164;DHT22;12319;49.204;8.116;2023-05-18T10:11:05;21.10;39.20
24164;DHT22;12319;49.204;8.116;2023-05-18T10:13:31;21.10;39.50
24164;DHT22;12319;49.204;8.116;2023-05-18T10:15:59;21.20;40.00
24164;DHT22;12319;49.204;8.116;2023-05-18T10:18:27;21.40;40.10
24164;DHT22;12319;49.204;8.116;2023-05-18T10:20:55;21.60;39.70
24164;DHT22;12319;49.204;8.116;2023-05-18T10:23:22;21.70;39.30
24164;DHT22;12319;49.204;8.116;2023-05-18T10:25:49;21.80;39.20
24164;DHT22;12319;49.204;8.116;2023-05-18T10:28:20;21.80;38.80
24164;DHT22;12319;49.204;8.116;2023-05-18T10:30:51;21.80;39.20
24164;DHT22;12319;49.204;8.116;2023-05-18T10:33:22;21.80;39.00
24164;DHT22;12319;49.204;8.116;2023-05-18T10:35:49;21.80;38.80
24164;DHT22;12319;49.204;8.116;2023-05-18T10:38:22;21.80;38.80
24164;DHT22;12319;49.204;8.116;2023-05-18T10:40:51;21.80;39.00
24164;DHT22;12319;49.204;8.116;2023-05-18T10:43:19;21.70;39.10
24164;DHT22;12319;49.204;8.116;2023-05-18T10:45:46;21.60;38.90
24164;DHT22;12319;49.204;8.116;2023-05-18T10:48:14;21.40;39.10
24164;DHT22;12319;49.204;8.116;2023-05-18T10:50:40;21.30;38.80
24164;DHT22;12319;49.204;8.116;2023-05-18T10:53:09;21.20;38.60
24164;DHT22;12319;49.204;8.116;2023-05-18T10:55:35;21.10;38.70
24164;DHT22;12319;49.204;8.116;2023-05-18T10:58:04;20.90;38.30
24164;DHT22;12319;49.204;8.116;2023-05-18T11:00:34;20.90;38.80
24164;DHT22;12319;49.204;8.116;2023-05-18T11:03:01;20.80;38.90
24164;DHT22;12319;49.204;8.116;2023-05-18T11:05:31;20.70;38.70
24164;DHT22;12319;49.204;8.116;2023-05-18T11:08:00;20.70;37.80
24164;DHT22;12319;49.204;8.116;2023-05-18T11:10:43;20.60;38.30
24164;DHT22;12319;49.204;8.116;2023-05-18T11:13:13;20.60;38.80
24164;DHT22;12319;49.204;8.116;2023-05-18T11:18:33;20.50;38.30
24164;DHT22;12319;49.204;8.116;2023-05-18T11:20:58;20.50;38.70
24164;DHT22;12319;49.204;8.116;2023-05-18T11:23:24;20.50;38.70
24164;DHT22;12319;49.204;8.116;2023-05-18T11:25:50;20.50;38.70
24164;DHT22;12319;49.204;8.116;2023-05-18T11:28:21;20.50;39.20
24164;DHT22;12319;49.204;8.116;2023-05-18T11:30:48;20.60;38.80
24164;DHT22;12319;49.204;8.116;2023-05-18T11:33:16;20.70;38.40
24164;DHT22;12319;49.204;8.116;2023-05-18T11:36:12;20.80;39.00
24164;DHT22;12319;49.204;8.116;2023-05-18T11:41:37;20.80;39.00
24164;DHT22;12319;49.204;8.116;2023-05-18T11:52:29;21.30;39.20
24164;DHT22;12319;49.204;8.116;2023-05-18T11:54:59;21.50;39.00
24164;DHT22;12319;49.204;8.116;2023-05-18T11:57:27;21.60;39.10
24164;DHT22;12319;49.204;8.116;2023-05-18T12:00:10;21.80;38.70
24164;DHT22;12319;49.204;8.116;2023-05-18T12:02:46;21.80;38.50
24164;DHT22;12319;49.204;8.116;2023-05-18T12:05:12;21.90;38.30
24164;DHT22;12319;49.204;8.116;2023-05-18T12:07:39;22.10;38.30
24164;DHT22;12319;49.204;8.116;2023-05-18T12:10:10;22.20;38.10
24164;DHT22;12319;49.204;8.116;2023-05-18T12:12:36;22.20;37.60
24164;DHT22;12319;49.204;8.116;2023-05-18T12:15:06;22.10;38.10
24164;DHT22;12319;49.204;8.116;2023-05-18T12:17:46;22.10;37.20
24164;DHT22;12319;49.204;8.116;2023-05-18T12:20:16;22.20;37.20
24164;DHT22;12319;49.204;8.116;2023-05-18T12:22:48;22.40;37.80
24164;DHT22;12319;49.204;8.116;2023-05-18T12:25:22;22.70;37.50
24164;DHT22;12319;49.204;8.116;2023-05-18T12:27:49;22.90;36.60
24164;DHT22;12319;49.204;8.116;2023-05-18T12:30:26;23.10;37.40
24164;DHT22;12319;49.204;8.116;2023-05-18T12:32:59;23.20;37.60
24164;DHT22;12319;49.204;8.116;2023-05-18T12:35:28;23.50;37.30
24164;DHT22;12319;49.204;8.116;2023-05-18T12:37:58;23.70;37.10
24164;DHT22;12319;49.204;8.116;2023-05-18T12:40:28;23.90;37.60
24164;DHT22;12319;49.204;8.116;2023-05-18T12:42:59;24.10;36.70
24164;DHT22;12319;49.204;8.116;2023-05-18T12:45:29;24.40;37.00
24164;DHT22;12319;49.204;8.116;2023-05-18T12:48:06;24.50;37.10
24164;DHT22;12319;49.204;8.116;2023-05-18T12:50:31;24.70;36.60
24164;DHT22;12319;49.204;8.116;2023-05-18T12:53:00;24.60;36.10
24164;DHT22;12319;49.204;8.116;2023-05-18T12:55:26;24.50;36.30
24164;DHT22;12319;49.204;8.116;2023-05-18T12:58:03;24.60;36.90
24164;DHT22;12319;49.204;8.116;2023-05-18T13:00:36;24.60;36.30
24164;DHT22;12319;49.204;8.116;2023-05-18T13:03:19;24.50;36.00
24164;DHT22;12319;49.204;8.116;2023-05-18T13:06:06;24.30;36.10
24164;DHT22;12319;49.204;8.116;2023-05-18T13:08:33;24.40;35.50
24164;DHT22;12319;49.204;8.116;2023-05-18T13:11:06;24.70;36.20
24164;DHT22;12319;49.204;8.116;2023-05-18T13:13:35;24.80;36.30
24164;DHT22;12319;49.204;8.116;2023-05-18T13:16:01;25.10;36.50
24164;DHT22;12319;49.204;8.116;2023-05-18T13:18:26;25.30;35.90
24164;DHT22;12319;49.204;8.116;2023-05-18T13:20:54;25.10;35.70
24164;DHT22;12319;49.204;8.116;2023-05-18T13:23:23;24.80;35.60
24164;DHT22;12319;49.204;8.116;2023-05-18T13:25:49;24.60;35.40
24164;DHT22;12319;49.204;8.116;2023-05-18T13:28:16;24.40;35.90
24164;DHT22;12319;49.204;8.116;2023-05-18T13:30:43;24.50;36.20
24164;DHT22;12319;49.204;8.116;2023-05-18T13:33:10;24.70;35.90
24164;DHT22;12319;49.204;8.116;2023-05-18T13:35:37;24.80;35.30
24164;DHT22;12319;49.204;8.116;2023-05-18T13:38:03;24.60;35.80
24164;DHT22;12319;49.204;8.116;2023-05-18T13:40:29;24.30;35.90
24164;DHT22;12319;49.204;8.116;2023-05-18T13:42:55;23.90;36.00
24164;DHT22;12319;49.204;8.116;2023-05-18T13:45:20;23.90;36.30
24164;DHT22;12319;49.204;8.116;2023-05-18T13:47:46;24.20;36.80
24164;DHT22;12319;49.204;8.116;2023-05-18T13:50:16;24.60;36.80
24164;DHT22;12319;49.204;8.116;2023-05-18T13:52:41;24.90;36.40
24164;DHT22;12319;49.204;8.116;2023-05-18T13:55:07;25.00;35.80
24164;DHT22;12319;49.204;8.116;2023-05-18T13:57:33;24.70;35.50
24164;DHT22;12319;49.204;8.116;2023-05-18T13:59:59;24.50;35.60
24164;DHT22;12319;49.204;8.116;2023-05-18T14:02:29;24.40;35.70
24164;DHT22;12319;49.204;8.116;2023-05-18T14:04:54;24.20;35.90
24164;DHT22;12319;49.204;8.116;2023-05-18T14:07:21;24.10;36.20
24164;DHT22;12319;49.204;8.116;2023-05-18T14:09:48;24.40;36.40
24164;DHT22;12319;49.204;8.116;2023-05-18T14:12:14;24.70;36.30
24164;DHT22;12319;49.204;8.116;2023-05-18T14:14:40;24.90;36.80
24164;DHT22;12319;49.204;8.116;2023-05-18T14:17:08;25.10;35.80
24164;DHT22;12319;49.204;8.116;2023-05-18T14:19:33;25.30;36.00
24164;DHT22;12319;49.204;8.116;2023-05-18T14:21:59;25.50;35.20
24164;DHT22;12319;49.204;8.116;2023-05-18T14:24:24;25.80;35.20
24164;DHT22;12319;49.204;8.116;2023-05-18T14:26:50;25.90;35.50
24164;DHT22;12319;49.204;8.116;2023-05-18T14:29:18;26.00;35.40
24164;DHT22;12319;49.204;8.116;2023-05-18T14:31:43;26.40;35.20
24164;DHT22;12319;49.204;8.116;2023-05-18T14:34:09;26.20;34.60
24164;DHT22;12319;49.204;8.116;2023-05-18T14:36:34;25.80;35.00
24164;DHT22;12319;49.204;8.116;2023-05-18T14:39:00;25.30;35.40
24164;DHT22;12319;49.204;8.116;2023-05-18T14:41:25;24.70;35.40
24164;DHT22;12319;49.204;8.116;2023-05-18T14:43:51;24.40;36.10
24164;DHT22;12319;49.204;8.116;2023-05-18T14:46:18;24.20;35.80
24164;DHT22;12319;49.204;8.116;2023-05-18T14:48:43;24.10;36.00
24164;DHT22;12319;49.204;8.116;2023-05-18T14:51:09;24.10;35.90
24164;DHT22;12319;49.204;8.116;2023-05-18T14:53:34;24.20;36.10
24164;DHT22;12319;49.204;8.116;2023-05-18T14:56:00;24.30;36.00
24164;DHT22;12319;49.204;8.116;2023-05-18T14:58:30;24.30;35.80
24164;DHT22;12319;49.204;8.116;2023-05-18T15:00:56;24.30;36.30
24164;DHT22;12319;49.204;8.116;2023-05-18T15:03:21;24.10;36.40
24164;DHT22;12319;49.204;8.116;2023-05-18T15:05:47;23.90;36.40
24164;DHT22;12319;49.204;8.116;2023-05-18T15:08:12;23.70;36.30
24164;DHT22;12319;49.204;8.116;2023-05-18T15:10:38;23.50;36.70
24164;DHT22;12319;49.204;8.116;2023-05-18T15:13:03;23.30;36.60
24164;DHT22;12319;49.204;8.116;2023-05-18T15:15:29;23.00;36.60
24164;DHT22;12319;49.204;8.116;2023-05-18T15:17:55;22.80;36.60
24164;DHT22;12319;49.204;8.116;2023-05-18T15:20:20;22.60;36.60
24164;DHT22;12319;49.204;8.116;2023-05-18T15:22:47;22.50;37.10
24164;DHT22;12319;49.204;8.116;2023-05-18T15:25:14;22.30;37.00
24164;DHT22;12319;49.204;8.116;2023-05-18T15:27:40;22.30;37.10
24164;DHT22;12319;49.204;8.116;2023-05-18T15:30:06;22.30;37.20
24164;DHT22;12319;49.204;8.116;2023-05-18T15:32:36;22.20;37.10
24164;DHT22;12319;49.204;8.116;2023-05-18T15:35:02;22.10;37.50
24164;DHT22;12319;49.204;8.116;2023-05-18T15:37:28;22.00;37.50
24164;DHT22;12319;49.204;8.116;2023-05-18T15:39:53;22.00;37.60
24164;DHT22;12319;49.204;8.116;2023-05-18T15:42:19;21.90;37.50
24164;DHT22;12319;49.204;8.116;2023-05-18T15:44:45;21.80;37.30
24164;DHT22;12319;49.204;8.116;2023-05-18T15:47:11;21.80;37.80
24164;DHT22;12319;49.204;8.116;2023-05-18T15:49:36;21.70;37.90
24164;DHT22;12319;49.204;8.116;2023-05-18T15:52:02;21.70;38.00
24164;DHT22;12319;49.204;8.116;2023-05-18T15:54:29;21.70;38.10